Opportunity — WDJ5813 — position and weather

sailwx.info

Track history (hours):
 
Tides and Currents Weather Stations Pressure Air Temp Water Temp Dewpoint Dewpoint Depression Visibility Wind Speed Wind Dir Waves Ship Positions

Opportunity

Owner: HNY Ferry Fleet LLC, New York, NY. More information available from US FCC via Universal Licensing System and Coast Guard Vessel Documentation Center.

Last reported at 2017-Dec-11 17:01 UTC. Time now 2017-Dec-13 12:42 UTC.
Position N 40°40' W 074°01'.

Length 26 m; draft 2 m.

Type: Passenger vessel. MMSI: 367791540.

Date/timePositionNaut miles runAvg speedWind from/ knotsBaromVisibWave heightAir tempDewpointWater temp
2017-Dec-11 17:01N 40°40' W 074°01'713.4
2017-Dec-11 16:30N 40°34' W 073°57'3 5.7
2017-Dec-11 16:00N 40°34' W 073°53'815.8
2017-Dec-11 15:30N 40°39' W 074°02'1 1.2
2017-Dec-11 15:00N 40°39' W 074°02'713.5
2017-Dec-11 14:29N 40°34' W 073°56'2 4.4
2017-Dec-11 14:00N 40°34' W 073°53'815.5
2017-Dec-11 13:31N 40°39' W 074°02'1 1.3
2017-Dec-11 13:01N 40°39' W 074°02'713.0
2017-Dec-11 12:28N 40°34' W 073°56'3 5.6
2017-Dec-11 12:00N 40°35' W 073°53'816.2
2017-Dec-11 11:31N 40°39' W 074°02'1 1.5
2017-Dec-11 11:01N 40°40' W 074°01'713.5
2017-Dec-11 10:30N 40°34' W 073°56'2 3.4
2017-Dec-11 10:00N 40°34' W 073°54'816.1
2017-Dec-11 09:31N 40°40' W 074°01'3 6.0
2017-Dec-11 09:00N 40°42' W 073°58'0 0.0
2017-Dec-10 20:05N 40°42' W 073°58'0 0.1
2017-Dec-10 20:00N 40°42' W 073°58'2 3.0
2017-Dec-10 19:31N 40°42' W 074°00'0 0.1
2017-Dec-10 19:01N 40°42' W 074°00'0 0.0
2017-Dec-10 18:30N 40°42' W 074°00'611.5
2017-Dec-10 18:00N 40°37' W 074°02'1018.3
2017-Dec-10 17:29N 40°35' W 073°50'817.6
2017-Dec-10 17:00N 40°35' W 074°01'815.7
2017-Dec-10 16:30N 40°42' W 074°00'510.5
2017-Dec-10 16:01N 40°37' W 074°03'1019.3
2017-Dec-10 15:30N 40°35' W 073°50'816.5
2017-Dec-10 15:00N 40°34' W 074°01'816.3
2017-Dec-10 14:31N 40°42' W 074°00'510.9
2017-Dec-10 14:01N 40°37' W 074°03'1018.5
2017-Dec-10 13:29N 40°35' W 073°50'816.5
2017-Dec-10 13:00N 40°34' W 074°00'816.4
2017-Dec-10 12:31N 40°42' W 074°00'612.7
2017-Dec-10 12:00N 40°36' W 074°02'918.0
2017-Dec-10 11:30N 40°35' W 073°50'4 8.3
2017-Dec-10 11:00N 40°34' W 073°55'816.0
2017-Dec-10 10:30N 40°40' W 074°01'3 5.6
2017-Dec-10 10:00N 40°42' W 073°58'0 0.0
2017-Dec-09 21:09N 40°42' W 073°58'0 0.0
2017-Dec-09 21:00N 40°42' W 073°58'1 2.1
2017-Dec-09 20:31N 40°42' W 073°60'510.2
2017-Dec-09 20:00N 40°38' W 074°03'1014.1
2017-Dec-09 19:20N 40°35' W 073°51'823.3
2017-Dec-09 19:01N 40°34' W 074°00'816.1
2017-Dec-09 18:30N 40°42' W 074°00'2 3.2
2017-Dec-09 18:00N 40°42' W 073°58'0 0.0
2017-Dec-09 17:30N 40°42' W 073°58'0 0.0
2017-Dec-09 17:00N 40°42' W 073°58'1 1.5
2017-Dec-09 16:31N 40°42' W 073°59'612.7
2017-Dec-09 16:00N 40°37' W 074°02'1018.2
2017-Dec-09 15:28N 40°35' W 073°50'918.7
2017-Dec-09 14:59N 40°36' W 074°02'713.9
2017-Dec-09 14:30N 40°42' W 074°00'612.1
2017-Dec-09 14:00N 40°36' W 074°02'918.6
2017-Dec-09 13:30N 40°35' W 073°50'816.9
2017-Dec-09 13:01N 40°34' W 074°01'816.0
2017-Dec-09 12:30N 40°42' W 074°00'712.9
2017-Dec-09 12:00N 40°36' W 074°02'918.2
2017-Dec-09 11:30N 40°35' W 073°50'611.5
2017-Dec-09 11:00N 40°34' W 073°57'917.6
2017-Dec-09 10:30N 40°42' W 073°59'1 1.7
2017-Dec-09 10:00N 40°42' W 073°58'0 0.0
2017-Dec-09 02:30N 40°42' W 073°58'4 7.4
2017-Dec-09 02:01N 40°39' W 074°02'713.9
2017-Dec-09 01:30N 40°34' W 073°55'0 0.2
2017-Dec-09 01:00N 40°34' W 073°55'714.0
2017-Dec-09 00:30N 40°39' W 074°02'1 1.4
2017-Dec-09 00:01N 40°40' W 074°01'713.7
2017-Dec-08 23:29N 40°34' W 073°56'1 2.2
2017-Dec-08 23:00N 40°34' W 073°54'714.4
2017-Dec-08 22:31N 40°39' W 074°02'1 1.1
2017-Dec-08 22:01N 40°39' W 074°02'713.2
2017-Dec-08 21:30N 40°34' W 073°57'1 2.7
2017-Dec-08 21:00N 40°34' W 073°55'714.4
2017-Dec-08 20:31N 40°39' W 074°02'1 1.3
2017-Dec-08 20:01N 40°39' W 074°02'713.4
2017-Dec-08 19:30N 40°34' W 073°56'1 2.0
2017-Dec-08 19:00N 40°34' W 073°55'714.1
2017-Dec-08 18:31N 40°39' W 074°02'1 1.1
2017-Dec-08 18:01N 40°39' W 074°02'713.0
2017-Dec-08 17:30N 40°34' W 073°57'2 4.4
2017-Dec-08 17:00N 40°34' W 073°54'715.1
2017-Dec-08 16:31N 40°39' W 074°02'1 2.5
2017-Dec-08 16:00N 40°40' W 074°01'714.0
2017-Dec-08 15:30N 40°34' W 073°57'3 5.9
2017-Dec-08 15:00N 40°34' W 073°53'815.9
2017-Dec-08 14:30N 40°39' W 074°02'0 0.7
2017-Dec-08 14:01N 40°39' W 074°02'612.7
2017-Dec-08 13:30N 40°34' W 073°57'3 6.5
2017-Dec-08 13:00N 40°35' W 073°53'816.1
2017-Dec-08 12:30N 40°39' W 074°02'1 2.2
2017-Dec-08 12:01N 40°40' W 074°01'713.5
2017-Dec-08 11:29N 40°34' W 073°56'2 4.8
2017-Dec-08 11:00N 40°34' W 073°53'816.6
2017-Dec-08 10:31N 40°40' W 074°01'3 0.4
2017-Dec-08 02:24N 40°42' W 073°58'3 7.2
2017-Dec-08 02:01N 40°40' W 074°01'714.1
2017-Dec-08 01:30N 40°34' W 073°57'2 4.7
2017-Dec-08 01:00N 40°34' W 073°54'715.0
2017-Dec-08 00:30N 40°39' W 074°02'1 2.9
2017-Dec-08 00:01N 40°40' W 074°01'714.0
2017-Dec-07 23:29N 40°34' W 073°57'2 4.5
2017-Dec-07 23:00N 40°34' W 073°54'715.1
2017-Dec-07 22:31N 40°39' W 074°02'1 2.5
2017-Dec-07 22:00N 40°40' W 074°01'713.8
2017-Dec-07 21:30N 40°34' W 073°57'3 6.0
2017-Dec-07 21:00N 40°34' W 073°53'815.6
2017-Dec-07 20:30N 40°39' W 074°02'1 2.9
2017-Dec-07 20:01N 40°40' W 074°01'713.8
2017-Dec-07 19:29N 40°34' W 073°57'3 5.7
2017-Dec-07 18:59N 40°34' W 073°53'816.5
2017-Dec-07 18:30N 40°39' W 074°02'0 0.8
2017-Dec-07 18:01N 40°39' W 074°02'713.0
2017-Dec-07 17:26N 40°34' W 073°55'0 0.1
2017-Dec-07 17:00N 40°34' W 073°55'714.6
2017-Dec-07 16:30N 40°39' W 074°02'1 2.4
2017-Dec-07 16:01N 40°40' W 074°01'713.8
2017-Dec-07 15:29N 40°34' W 073°56'2 3.2
2017-Dec-07 15:00N 40°34' W 073°54'715.0
2017-Dec-07 14:30N 40°39' W 074°02'0 0.0
2017-Dec-07 14:00N 40°39' W 074°02'712.8
2017-Dec-07 13:29N 40°34' W 073°56'0 0.7
2017-Dec-07 13:00N 40°34' W 073°56'714.0
2017-Dec-07 12:30N 40°39' W 074°02'1 1.2
2017-Dec-07 12:01N 40°39' W 074°02'713.6
2017-Dec-07 11:29N 40°34' W 073°56'3 6.8
2017-Dec-07 11:00N 40°35' W 073°52'917.8
2017-Dec-07 10:30N 40°38' W 074°02'510.2
2017-Dec-07 10:00N 40°42' W 073°58'0 0.0
2017-Dec-07 03:17N 40°42' W 073°58'310.5
2017-Dec-07 03:01N 40°40' W 074°01'816.5
2017-Dec-07 02:30N 40°35' W 073°53'4 8.2
2017-Dec-07 02:00N 40°34' W 073°58'713.5
2017-Dec-07 01:31N 40°40' W 074°01'3 6.7
2017-Dec-07 01:00N 40°37' W 074°03'1019.4
2017-Dec-07 00:30N 40°35' W 073°50'510.4
2017-Dec-06 23:59N 40°34' W 073°57'613.3
2017-Dec-06 23:31N 40°39' W 074°02'0 0.6
2017-Dec-06 23:01N 40°39' W 074°02'713.4
2017-Dec-06 22:30N 40°34' W 073°56'2 3.1
2017-Dec-06 22:00N 40°34' W 073°54'714.8
2017-Dec-06 21:31N 40°39' W 074°02'1 1.5
2017-Dec-06 21:01N 40°40' W 074°01'  
2017-Dec-04 02:38N 40°42' W 073°58'0 1.8
2017-Dec-04 02:31N 40°42' W 073°59'612.0
2017-Dec-04 02:01N 40°37' W 074°03'1019.2
2017-Dec-04 01:30N 40°35' W 073°50'917.5
2017-Dec-04 01:00N 40°35' W 074°01'715.1
2017-Dec-04 00:31N 40°42' W 074°00'612.1
2017-Dec-04 00:00N 40°36' W 074°02'914.9
2017-Dec-03 23:23N 40°35' W 073°50'822.1
2017-Dec-03 23:00N 40°35' W 074°01'715.2
2017-Dec-03 22:30N 40°42' W 074°00'611.5
2017-Dec-03 22:00N 40°37' W 074°02'1019.2
2017-Dec-03 21:30N 40°35' W 073°50'917.2
2017-Dec-03 21:00N 40°35' W 074°01'714.7
2017-Dec-03 20:30N 40°42' W 074°00'611.9
2017-Dec-03 20:01N 40°36' W 074°02'1015.4
2017-Dec-03 19:23N 40°35' W 073°50'822.0
2017-Dec-03 19:00N 40°35' W 074°01'815.4
2017-Dec-03 18:31N 40°42' W 074°00'1 0.1
2017-Dec-03 02:42N 40°42' W 073°58'1 7.6
2017-Dec-03 02:31N 40°42' W 074°00'5 9.8
2017-Dec-03 02:01N 40°38' W 074°03'1017.5
2017-Dec-03 01:27N 40°35' W 073°50'920.7
2017-Dec-03 01:00N 40°35' W 074°02'713.9
2017-Dec-03 00:31N 40°42' W 074°00'713.5
2017-Dec-03 00:00N 40°36' W 074°02'917.1
2017-Dec-02 23:30N 40°35' W 073°50'1020.1
2017-Dec-02 23:01N 40°38' W 074°02'3 5.1
2017-Dec-02 22:31N 40°41' W 074°01'815.3
2017-Dec-02 21:59N 40°34' W 073°56'2 3.4
2017-Dec-02 21:30N 40°34' W 073°54'815.6
2017-Dec-02 21:01N 40°39' W 074°02'2 3.2
2017-Dec-02 20:30N 40°40' W 074°01'510.4
2017-Dec-02 20:00N 40°35' W 074°02'917.1
2017-Dec-02 19:29N 40°35' W 073°50'817.7
2017-Dec-02 19:01N 40°34' W 074°01'815.9
2017-Dec-02 18:30N 40°42' W 074°00'2 3.1
2017-Dec-02 18:00N 40°42' W 073°58'0 0.0
2017-Dec-02 17:30N 40°42' W 073°58'0 0.0
2017-Dec-02 17:00N 40°42' W 073°58'0 0.0
2017-Dec-02 03:16N 40°42' W 073°58'1 5.1
2017-Dec-02 03:01N 40°42' W 074°00'917.8
2017-Dec-02 02:30N 40°34' W 073°55'3 6.0
2017-Dec-02 02:00N 40°35' W 073°51'917.2
2017-Dec-02 01:30N 40°39' W 074°02'2 3.3
2017-Dec-02 01:01N 40°40' W 074°01'714.1
2017-Dec-02 00:30N 40°34' W 073°57'2 4.2
2017-Dec-02 00:00N 40°34' W 073°55'714.7
2017-Dec-01 23:30N 40°39' W 074°02'0 0.6
2017-Dec-01 23:01N 40°39' W 074°02'612.3
2017-Dec-01 22:30N 40°34' W 073°57'3 5.2
2017-Dec-01 22:00N 40°34' W 073°54'815.9
2017-Dec-01 21:31N 40°39' W 074°02'1 1.4
2017-Dec-01 21:01N 40°39' W 074°01'713.7
2017-Dec-01 20:30N 40°34' W 073°56'2 4.1
2017-Dec-01 20:00N 40°34' W 073°53'816.1
2017-Dec-01 19:31N 40°39' W 074°02'1 3.0
2017-Dec-01 19:01N 40°40' W 074°01'815.2
2017-Dec-01 18:30N 40°34' W 073°56'3 5.2
2017-Dec-01 18:01N 40°34' W 073°53'816.7
2017-Dec-01 17:31N 40°39' W 074°02'1 2.7
2017-Dec-01 17:01N 40°40' W 074°01'  
Track history (hours):
 
Tides and Currents Weather Stations Pressure Air Temp Water Temp Dewpoint Dewpoint Depression Visibility Wind Speed Wind Dir Waves Ship Positions

Opportunity

Owner: HNY Ferry Fleet LLC, New York, NY. More information available from US FCC via Universal Licensing System and Coast Guard Vessel Documentation Center.

Last reported at 2017-Dec-11 17:01 UTC. Time now 2017-Dec-13 12:42 UTC.
Position N 40°40' W 074°01'.

Length 26 m; draft 2 m.

Type: Passenger vessel. MMSI: 367791540.

Date/timePositionNaut miles runAvg speedWind from/ knotsBaromVisibWave heightAir tempDewpointWater temp
2017-Dec-11 17:01N 40°40' W 074°01'713.4
2017-Dec-11 16:30N 40°34' W 073°57'3 5.7
2017-Dec-11 16:00N 40°34' W 073°53'815.8
2017-Dec-11 15:30N 40°39' W 074°02'1 1.2
2017-Dec-11 15:00N 40°39' W 074°02'713.5
2017-Dec-11 14:29N 40°34' W 073°56'2 4.4
2017-Dec-11 14:00N 40°34' W 073°53'815.5
2017-Dec-11 13:31N 40°39' W 074°02'1 1.3
2017-Dec-11 13:01N 40°39' W 074°02'713.0
2017-Dec-11 12:28N 40°34' W 073°56'3 5.6
2017-Dec-11 12:00N 40°35' W 073°53'816.2
2017-Dec-11 11:31N 40°39' W 074°02'1 1.5
2017-Dec-11 11:01N 40°40' W 074°01'713.5
2017-Dec-11 10:30N 40°34' W 073°56'2 3.4
2017-Dec-11 10:00N 40°34' W 073°54'816.1
2017-Dec-11 09:31N 40°40' W 074°01'3 6.0
2017-Dec-11 09:00N 40°42' W 073°58'0 0.0
2017-Dec-10 20:05N 40°42' W 073°58'0 0.1
2017-Dec-10 20:00N 40°42' W 073°58'2 3.0
2017-Dec-10 19:31N 40°42' W 074°00'0 0.1
2017-Dec-10 19:01N 40°42' W 074°00'0 0.0
2017-Dec-10 18:30N 40°42' W 074°00'611.5
2017-Dec-10 18:00N 40°37' W 074°02'1018.3
2017-Dec-10 17:29N 40°35' W 073°50'817.6
2017-Dec-10 17:00N 40°35' W 074°01'815.7
2017-Dec-10 16:30N 40°42' W 074°00'510.5
2017-Dec-10 16:01N 40°37' W 074°03'1019.3
2017-Dec-10 15:30N 40°35' W 073°50'816.5
2017-Dec-10 15:00N 40°34' W 074°01'816.3
2017-Dec-10 14:31N 40°42' W 074°00'510.9
2017-Dec-10 14:01N 40°37' W 074°03'1018.5
2017-Dec-10 13:29N 40°35' W 073°50'816.5
2017-Dec-10 13:00N 40°34' W 074°00'816.4
2017-Dec-10 12:31N 40°42' W 074°00'612.7
2017-Dec-10 12:00N 40°36' W 074°02'918.0
2017-Dec-10 11:30N 40°35' W 073°50'4 8.3
2017-Dec-10 11:00N 40°34' W 073°55'816.0
2017-Dec-10 10:30N 40°40' W 074°01'3 5.6
2017-Dec-10 10:00N 40°42' W 073°58'0 0.0
2017-Dec-09 21:09N 40°42' W 073°58'0 0.0
2017-Dec-09 21:00N 40°42' W 073°58'1 2.1
2017-Dec-09 20:31N 40°42' W 073°60'510.2
2017-Dec-09 20:00N 40°38' W 074°03'1014.1
2017-Dec-09 19:20N 40°35' W 073°51'823.3
2017-Dec-09 19:01N 40°34' W 074°00'816.1
2017-Dec-09 18:30N 40°42' W 074°00'2 3.2
2017-Dec-09 18:00N 40°42' W 073°58'0 0.0
2017-Dec-09 17:30N 40°42' W 073°58'0 0.0
2017-Dec-09 17:00N 40°42' W 073°58'1 1.5
2017-Dec-09 16:31N 40°42' W 073°59'612.7
2017-Dec-09 16:00N 40°37' W 074°02'1018.2
2017-Dec-09 15:28N 40°35' W 073°50'918.7
2017-Dec-09 14:59N 40°36' W 074°02'713.9
2017-Dec-09 14:30N 40°42' W 074°00'612.1
2017-Dec-09 14:00N 40°36' W 074°02'918.6
2017-Dec-09 13:30N 40°35' W 073°50'816.9
2017-Dec-09 13:01N 40°34' W 074°01'816.0
2017-Dec-09 12:30N 40°42' W 074°00'712.9
2017-Dec-09 12:00N 40°36' W 074°02'918.2
2017-Dec-09 11:30N 40°35' W 073°50'611.5
2017-Dec-09 11:00N 40°34' W 073°57'917.6
2017-Dec-09 10:30N 40°42' W 073°59'1 1.7
2017-Dec-09 10:00N 40°42' W 073°58'0 0.0
2017-Dec-09 02:30N 40°42' W 073°58'4 7.4
2017-Dec-09 02:01N 40°39' W 074°02'713.9
2017-Dec-09 01:30N 40°34' W 073°55'0 0.2
2017-Dec-09 01:00N 40°34' W 073°55'714.0
2017-Dec-09 00:30N 40°39' W 074°02'1 1.4
2017-Dec-09 00:01N 40°40' W 074°01'713.7
2017-Dec-08 23:29N 40°34' W 073°56'1 2.2
2017-Dec-08 23:00N 40°34' W 073°54'714.4
2017-Dec-08 22:31N 40°39' W 074°02'1 1.1
2017-Dec-08 22:01N 40°39' W 074°02'713.2
2017-Dec-08 21:30N 40°34' W 073°57'1 2.7
2017-Dec-08 21:00N 40°34' W 073°55'714.4
2017-Dec-08 20:31N 40°39' W 074°02'1 1.3
2017-Dec-08 20:01N 40°39' W 074°02'713.4
2017-Dec-08 19:30N 40°34' W 073°56'1 2.0
2017-Dec-08 19:00N 40°34' W 073°55'714.1
2017-Dec-08 18:31N 40°39' W 074°02'1 1.1
2017-Dec-08 18:01N 40°39' W 074°02'713.0
2017-Dec-08 17:30N 40°34' W 073°57'2 4.4
2017-Dec-08 17:00N 40°34' W 073°54'715.1
2017-Dec-08 16:31N 40°39' W 074°02'1 2.5
2017-Dec-08 16:00N 40°40' W 074°01'714.0
2017-Dec-08 15:30N 40°34' W 073°57'3 5.9
2017-Dec-08 15:00N 40°34' W 073°53'815.9
2017-Dec-08 14:30N 40°39' W 074°02'0 0.7
2017-Dec-08 14:01N 40°39' W 074°02'612.7
2017-Dec-08 13:30N 40°34' W 073°57'3 6.5
2017-Dec-08 13:00N 40°35' W 073°53'816.1
2017-Dec-08 12:30N 40°39' W 074°02'1 2.2
2017-Dec-08 12:01N 40°40' W 074°01'713.5
2017-Dec-08 11:29N 40°34' W 073°56'2 4.8
2017-Dec-08 11:00N 40°34' W 073°53'816.6
2017-Dec-08 10:31N 40°40' W 074°01'3 0.4
2017-Dec-08 02:24N 40°42' W 073°58'3 7.2
2017-Dec-08 02:01N 40°40' W 074°01'714.1
2017-Dec-08 01:30N 40°34' W 073°57'2 4.7
2017-Dec-08 01:00N 40°34' W 073°54'715.0
2017-Dec-08 00:30N 40°39' W 074°02'1 2.9
2017-Dec-08 00:01N 40°40' W 074°01'714.0
2017-Dec-07 23:29N 40°34' W 073°57'2 4.5
2017-Dec-07 23:00N 40°34' W 073°54'715.1
2017-Dec-07 22:31N 40°39' W 074°02'1 2.5
2017-Dec-07 22:00N 40°40' W 074°01'713.8
2017-Dec-07 21:30N 40°34' W 073°57'3 6.0
2017-Dec-07 21:00N 40°34' W 073°53'815.6
2017-Dec-07 20:30N 40°39' W 074°02'1 2.9
2017-Dec-07 20:01N 40°40' W 074°01'713.8
2017-Dec-07 19:29N 40°34' W 073°57'3 5.7
2017-Dec-07 18:59N 40°34' W 073°53'816.5
2017-Dec-07 18:30N 40°39' W 074°02'0 0.8
2017-Dec-07 18:01N 40°39' W 074°02'713.0
2017-Dec-07 17:26N 40°34' W 073°55'0 0.1
2017-Dec-07 17:00N 40°34' W 073°55'714.6
2017-Dec-07 16:30N 40°39' W 074°02'1 2.4
2017-Dec-07 16:01N 40°40' W 074°01'713.8
2017-Dec-07 15:29N 40°34' W 073°56'2 3.2
2017-Dec-07 15:00N 40°34' W 073°54'715.0
2017-Dec-07 14:30N 40°39' W 074°02'0 0.0
2017-Dec-07 14:00N 40°39' W 074°02'712.8
2017-Dec-07 13:29N 40°34' W 073°56'0 0.7
2017-Dec-07 13:00N 40°34' W 073°56'714.0
2017-Dec-07 12:30N 40°39' W 074°02'1 1.2
2017-Dec-07 12:01N 40°39' W 074°02'713.6
2017-Dec-07 11:29N 40°34' W 073°56'3 6.8
2017-Dec-07 11:00N 40°35' W 073°52'917.8
2017-Dec-07 10:30N 40°38' W 074°02'510.2
2017-Dec-07 10:00N 40°42' W 073°58'0 0.0
2017-Dec-07 03:17N 40°42' W 073°58'310.5
2017-Dec-07 03:01N 40°40' W 074°01'816.5
2017-Dec-07 02:30N 40°35' W 073°53'4 8.2
2017-Dec-07 02:00N 40°34' W 073°58'713.5
2017-Dec-07 01:31N 40°40' W 074°01'3 6.7
2017-Dec-07 01:00N 40°37' W 074°03'1019.4
2017-Dec-07 00:30N 40°35' W 073°50'510.4
2017-Dec-06 23:59N 40°34' W 073°57'613.3
2017-Dec-06 23:31N 40°39' W 074°02'0 0.6
2017-Dec-06 23:01N 40°39' W 074°02'713.4
2017-Dec-06 22:30N 40°34' W 073°56'2 3.1
2017-Dec-06 22:00N 40°34' W 073°54'714.8
2017-Dec-06 21:31N 40°39' W 074°02'1 1.5
2017-Dec-06 21:01N 40°40' W 074°01'  
2017-Dec-04 02:38N 40°42' W 073°58'0 1.8
2017-Dec-04 02:31N 40°42' W 073°59'612.0
2017-Dec-04 02:01N 40°37' W 074°03'1019.2
2017-Dec-04 01:30N 40°35' W 073°50'917.5
2017-Dec-04 01:00N 40°35' W 074°01'715.1
2017-Dec-04 00:31N 40°42' W 074°00'612.1
2017-Dec-04 00:00N 40°36' W 074°02'914.9
2017-Dec-03 23:23N 40°35' W 073°50'822.1
2017-Dec-03 23:00N 40°35' W 074°01'715.2
2017-Dec-03 22:30N 40°42' W 074°00'611.5
2017-Dec-03 22:00N 40°37' W 074°02'1019.2
2017-Dec-03 21:30N 40°35' W 073°50'917.2
2017-Dec-03 21:00N 40°35' W 074°01'714.7
2017-Dec-03 20:30N 40°42' W 074°00'611.9
2017-Dec-03 20:01N 40°36' W 074°02'1015.4
2017-Dec-03 19:23N 40°35' W 073°50'822.0
2017-Dec-03 19:00N 40°35' W 074°01'815.4
2017-Dec-03 18:31N 40°42' W 074°00'1 0.1
2017-Dec-03 02:42N 40°42' W 073°58'1 7.6
2017-Dec-03 02:31N 40°42' W 074°00'5 9.8
2017-Dec-03 02:01N 40°38' W 074°03'1017.5
2017-Dec-03 01:27N 40°35' W 073°50'920.7
2017-Dec-03 01:00N 40°35' W 074°02'713.9
2017-Dec-03 00:31N 40°42' W 074°00'713.5
2017-Dec-03 00:00N 40°36' W 074°02'917.1
2017-Dec-02 23:30N 40°35' W 073°50'1020.1
2017-Dec-02 23:01N 40°38' W 074°02'3 5.1
2017-Dec-02 22:31N 40°41' W 074°01'815.3
2017-Dec-02 21:59N 40°34' W 073°56'2 3.4
2017-Dec-02 21:30N 40°34' W 073°54'815.6
2017-Dec-02 21:01N 40°39' W 074°02'2 3.2
2017-Dec-02 20:30N 40°40' W 074°01'510.4
2017-Dec-02 20:00N 40°35' W 074°02'917.1
2017-Dec-02 19:29N 40°35' W 073°50'817.7
2017-Dec-02 19:01N 40°34' W 074°01'815.9
2017-Dec-02 18:30N 40°42' W 074°00'2 3.1
2017-Dec-02 18:00N 40°42' W 073°58'0 0.0
2017-Dec-02 17:30N 40°42' W 073°58'0 0.0
2017-Dec-02 17:00N 40°42' W 073°58'0 0.0
2017-Dec-02 03:16N 40°42' W 073°58'1 5.1
2017-Dec-02 03:01N 40°42' W 074°00'917.8
2017-Dec-02 02:30N 40°34' W 073°55'3 6.0
2017-Dec-02 02:00N 40°35' W 073°51'917.2
2017-Dec-02 01:30N 40°39' W 074°02'2 3.3
2017-Dec-02 01:01N 40°40' W 074°01'714.1
2017-Dec-02 00:30N 40°34' W 073°57'2 4.2
2017-Dec-02 00:00N 40°34' W 073°55'714.7
2017-Dec-01 23:30N 40°39' W 074°02'0 0.6
2017-Dec-01 23:01N 40°39' W 074°02'612.3
2017-Dec-01 22:30N 40°34' W 073°57'3 5.2
2017-Dec-01 22:00N 40°34' W 073°54'815.9
2017-Dec-01 21:31N 40°39' W 074°02'1 1.4
2017-Dec-01 21:01N 40°39' W 074°01'713.7
2017-Dec-01 20:30N 40°34' W 073°56'2 4.1
2017-Dec-01 20:00N 40°34' W 073°53'816.1
2017-Dec-01 19:31N 40°39' W 074°02'1 3.0
2017-Dec-01 19:01N 40°40' W 074°01'815.2
2017-Dec-01 18:30N 40°34' W 073°56'3 5.2
2017-Dec-01 18:01N 40°34' W 073°53'816.7
2017-Dec-01 17:31N 40°39' W 074°02'1 2.7
2017-Dec-01 17:01N 40°40' W 074°01'  

Dump ship's entire track history